Time;durP1;ratioP1;P1;durP2;ratioP2;P2;SDS_P1;SDS_P2;PMS_P1;PMS_P2;Temp;Humidity;BMP_temperature;BMP_pressure;BME280_temperature;BME280_humidity;BME280_pressure;Samples;Min_cycle;Max_cycle;Signal;HPM_P1;HPM_P2
2023/05/27 09:01:43;;;;;;;5.63;2.28;;;;;;;31.65;41.03;98163.91;5093004;28;20044;-62
2023/05/27 09:04:14;;;;;;;4.75;2.17;;;;;;;31.59;41.96;98167.22;5083070;28;20048;-62
2023/05/27 09:06:44;;;;;;;3.83;1.98;;;;;;;31.83;40.91;98169.94;5095972;28;20674;-62
2023/05/27 09:09:14;;;;;;;7.88;2.08;;;;;;;31.79;41.72;98163.56;5088801;28;20067;-61
2023/05/27 09:11:44;;;;;;;3.17;1.92;;;;;;;31.69;40.72;98155.03;5080268;28;20032;-60
2023/05/27 09:14:23;;;;;;;3.92;1.90;;;;;;;31.51;41.82;98152.47;5095911;28;20054;-60
2023/05/27 09:16:57;;;;;;;5.28;2.20;;;;;;;31.55;41.82;98158.91;5098102;28;20062;-62
2023/05/27 09:19:26;;;;;;;4.95;2.10;;;;;;;31.78;42.37;98151.00;5080597;28;20086;-64
2023/05/27 09:21:56;;;;;;;5.85;1.98;;;;;;;31.94;42.11;98156.56;5100523;28;20089;-61
2023/05/27 09:24:26;;;;;;;3.95;2.08;;;;;;;31.84;41.40;98146.88;5101310;28;20115;-64
2023/05/27 09:26:56;;;;;;;5.93;1.98;;;;;;;31.52;42.40;98154.06;5096150;28;20543;-64
2023/05/27 09:29:26;;;;;;;4.55;2.17;;;;;;;31.59;42.13;98148.88;5103847;28;20050;-60
2023/05/27 09:31:56;;;;;;;5.55;1.98;;;;;;;31.76;41.87;98158.78;5087155;28;20052;-61
2023/05/27 09:34:29;;;;;;;7.20;2.03;;;;;;;31.75;42.04;98153.63;5078365;28;20051;-60
2023/05/27 09:37:00;;;;;;;5.68;2.10;;;;;;;31.78;41.20;98150.22;5059797;28;20184;-61
2023/05/27 09:39:30;;;;;;;5.65;2.15;;;;;;;31.88;42.87;98139.56;5085461;28;20046;-61
2023/05/27 09:42:00;;;;;;;4.85;2.03;;;;;;;31.73;42.36;98147.72;5083248;28;20086;-62
2023/05/27 09:44:36;;;;;;;3.60;2.45;;;;;;;31.45;42.10;98142.91;5089408;28;20044;-61
2023/05/27 09:47:09;;;;;;;5.55;2.55;;;;;;;31.30;42.36;98129.91;5085549;28;20744;-61
2023/05/27 09:49:39;;;;;;;4.70;2.00;;;;;;;31.61;43.26;98121.13;5076640;28;20047;-60
2023/05/27 09:52:12;;;;;;;6.78;1.98;;;;;;;31.74;41.36;98119.16;5088744;28;20280;-61
2023/05/27 09:54:43;;;;;;;6.75;2.50;;;;;;;31.47;42.94;98118.72;5089985;28;20051;-61
2023/05/27 09:57:14;;;;;;;5.28;2.28;;;;;;;31.41;43.06;98111.88;5090649;28;20093;-62
2023/05/27 09:59:46;;;;;;;6.85;2.47;;;;;;;31.61;42.87;98107.44;5092043;28;20190;-61
2023/05/27 10:02:20;;;;;;;4.25;2.22;;;;;;;31.66;41.13;98101.72;5084043;28;20062;-61
2023/05/27 10:04:50;;;;;;;3.90;2.30;;;;;;;31.37;41.68;98102.78;5087802;28;20103;-61
2023/05/27 10:07:22;;;;;;;4.93;2.08;;;;;;;31.41;42.13;98089.19;5089428;28;20123;-61
2023/05/27 10:10:17;;;;;;;7.18;2.72;;;;;;;31.46;41.71;98091.69;5086011;28;20075;-61
2023/05/27 10:12:48;;;;;;;4.82;2.10;;;;;;;31.56;42.38;98100.25;5089063;28;20036;-60
2023/05/27 10:15:34;;;;;;;6.30;2.45;;;;;;;31.62;42.23;98103.56;5091119;28;20055;-62
2023/05/27 10:18:06;;;;;;;5.60;2.60;;;;;;;31.51;43.17;98105.94;5068178;28;20055;-61
2023/05/27 10:20:41;;;;;;;4.47;2.53;;;;;;;31.55;43.05;98108.81;5093446;28;20044;-59
2023/05/27 10:23:25;;;;;;;7.20;2.75;;;;;;;31.50;41.74;98111.75;5085374;28;20101;-58
2023/05/27 10:26:07;;;;;;;;;;;;;;;31.69;42.96;98100.25;5073084;28;20040;-60
2023/05/27 10:28:42;;;;;;;8.73;2.58;;;;;;;31.49;42.90;98101.94;5047968;28;20027;-60
2023/05/27 10:31:15;;;;;;;7.00;2.38;;;;;;;31.53;42.34;98097.38;5081445;28;20140;-61
2023/05/27 10:33:49;;;;;;;;;;;;;;;31.52;41.77;98095.78;5091432;28;20051;-61
2023/05/27 10:36:36;;;;;;;5.05;2.17;;;;;;;31.64;42.46;98093.06;5098182;28;20373;-61
2023/05/27 10:39:13;;;;;;;6.65;2.90;;;;;;;31.60;41.89;98073.78;5105677;28;20471;-58
2023/05/27 10:41:56;;;;;;;10.27;2.60;;;;;;;31.23;42.99;98068.66;5092880;28;20048;-61
2023/05/27 10:44:37;;;;;;;5.40;2.40;;;;;;;31.38;42.29;98065.25;5065255;28;20400;-60
2023/05/27 10:47:15;;;;;;;6.10;2.25;;;;;;;31.39;42.52;98056.69;5073142;28;20063;-60
2023/05/27 10:49:48;;;;;;;8.55;2.50;;;;;;;31.46;40.94;98059.66;5071321;28;20052;-59
2023/05/27 10:52:18;;;;;;;3.90;1.90;;;;;;;31.65;42.84;98059.03;5037716;28;20517;-61
2023/05/27 10:54:50;;;;;;;7.57;2.22;;;;;;;31.53;41.34;98064.53;5082281;28;20040;-61
2023/05/27 10:57:22;;;;;;;6.22;2.28;;;;;;;31.56;41.71;98061.91;5087210;28;20521;-62
2023/05/27 10:59:53;;;;;;;6.22;2.67;;;;;;;31.72;41.76;98055.72;5087212;28;20059;-61
2023/05/27 11:02:34;;;;;;;6.20;2.55;;;;;;;31.64;41.05;98054.75;5080491;28;20132;-60
2023/05/27 11:05:14;;;;;;;7.05;2.35;;;;;;;31.72;42.34;98055.72;5063088;28;20052;-60
2023/05/27 11:07:43;;;;;;;3.38;2.00;;;;;;;31.62;41.26;98066.03;5078505;28;20487;-60
2023/05/27 11:10:13;;;;;;;3.95;2.40;;;;;;;31.69;41.40;98064.66;5068193;28;20048;-61
2023/05/27 11:12:48;;;;;;;4.30;2.00;;;;;;;31.61;41.73;98058.16;5067754;28;20407;-60
2023/05/27 11:15:19;;;;;;;4.47;2.20;;;;;;;31.50;41.30;98048.81;5066085;28;20132;-62
2023/05/27 11:17:49;;;;;;;5.60;2.28;;;;;;;31.49;40.71;98058.16;5065802;28;20044;-62
2023/05/27 11:20:20;;;;;;;6.03;2.17;;;;;;;31.46;41.65;98053.38;5064107;28;20032;-61
2023/05/27 11:22:51;;;;;;;5.80;2.17;;;;;;;31.58;41.21;98058.84;5051754;28;20539;-61
2023/05/27 11:25:20;;;;;;;5.60;2.22;;;;;;;31.45;42.27;98052.56;5038896;28;20118;-62
2023/05/27 11:27:50;;;;;;;8.73;2.22;;;;;;;31.39;42.10;98045.72;5076104;28;20411;-61
2023/05/27 11:30:24;;;;;;;9.82;2.90;;;;;;;31.40;41.28;98050.06;5066560;28;20564;-63
2023/05/27 11:33:03;;;;;;;6.72;2.50;;;;;;;31.28;41.62;98036.41;5078864;28;20056;-60
2023/05/27 11:35:34;;;;;;;4.22;2.40;;;;;;;31.36;41.77;98024.53;5087336;28;20036;-61
2023/05/27 11:38:03;;;;;;;6.40;2.25;;;;;;;31.39;40.53;98020.28;5086927;28;20040;-61
2023/05/27 11:40:38;;;;;;;10.88;2.75;;;;;;;31.40;41.30;98033.66;5096010;28;20044;-60
2023/05/27 11:43:08;;;;;;;5.13;3.22;;;;;;;31.40;40.51;98032.84;5100393;28;20097;-61
2023/05/27 11:45:38;;;;;;;8.57;2.08;;;;;;;31.46;41.51;98028.72;5102943;28;20471;-60
2023/05/27 11:48:09;;;;;;;6.93;2.45;;;;;;;31.38;41.24;98035.91;5098949;28;20777;-60
2023/05/27 11:50:40;;;;;;;6.95;2.97;;;;;;;31.40;42.20;98041.06;5099868;28;20407;-61
2023/05/27 11:53:11;;;;;;;3.65;1.80;;;;;;;31.35;42.53;98033.06;5097385;28;20155;-61
2023/05/27 11:55:40;;;;;;;4.47;2.10;;;;;;;31.27;41.62;98031.28;5085087;28;20058;-61
2023/05/27 11:58:10;;;;;;;2.95;2.00;;;;;;;31.30;40.82;98023.16;5098214;28;20040;-61
2023/05/27 12:00:39;;;;;;;7.97;1.98;;;;;;;31.22;41.13;98024.09;5102301;28;20127;-62
2023/05/27 12:03:11;;;;;;;4.78;1.63;;;;;;;31.05;42.00;98030.59;5060875;28;20051;-62
2023/05/27 12:05:41;;;;;;;3.45;1.70;;;;;;;31.03;40.80;98032.06;5074233;28;20048;-60
2023/05/27 12:08:10;;;;;;;5.72;1.60;;;;;;;31.05;42.17;98035.28;5067386;28;20048;-61
2023/05/27 12:10:39;;;;;;;5.32;1.75;;;;;;;31.10;40.99;98027.66;5084383;28;20051;-62
2023/05/27 12:13:10;;;;;;;3.95;1.75;;;;;;;31.11;41.40;98023.75;5079200;28;20056;-60
2023/05/27 12:15:39;;;;;;;6.35;2.05;;;;;;;31.09;40.58;98025.25;5083197;28;20058;-61
2023/05/27 12:18:09;;;;;;;5.30;2.00;;;;;;;31.08;40.03;98029.09;5073536;28;20044;-60
2023/05/27 12:20:38;;;;;;;4.70;1.95;;;;;;;30.79;41.54;98021.91;5071793;28;20680;-61
2023/05/27 12:23:08;;;;;;;5.97;1.88;;;;;;;30.85;41.53;98026.00;5073316;28;20422;-60
2023/05/27 12:25:37;;;;;;;4.95;1.90;;;;;;;30.93;41.43;98024.31;5063955;28;20075;-59
2023/05/27 12:28:08;;;;;;;4.22;1.85;;;;;;;30.85;41.68;98028.72;5076464;28;20037;-59
2023/05/27 12:30:37;;;;;;;4.57;2.00;;;;;;;30.86;41.46;98029.53;5078478;28;20052;-61
2023/05/27 12:33:08;;;;;;;7.25;2.08;;;;;;;30.88;42.51;98025.34;5080284;28;20375;-61
2023/05/27 12:35:37;;;;;;;6.53;2.33;;;;;;;30.94;43.18;98026.69;5078069;28;20044;-63
2023/05/27 12:38:07;;;;;;;11.10;2.40;;;;;;;30.93;41.61;98022.38;5087621;28;20271;-62
2023/05/27 12:40:36;;;;;;;7.97;2.15;;;;;;;30.93;41.42;98027.03;5094116;28;20844;-60
2023/05/27 12:43:06;;;;;;;3.55;1.63;;;;;;;30.88;41.91;98041.75;5069463;28;20048;-59
2023/05/27 12:45:35;;;;;;;2.45;1.60;;;;;;;30.83;43.83;98047.44;5083587;28;20043;-61
2023/05/27 12:48:06;;;;;;;5.40;1.70;;;;;;;30.76;41.50;98044.44;5096823;28;20223;-60
2023/05/27 12:50:35;;;;;;;5.97;1.98;;;;;;;30.63;42.37;98042.84;5083420;28;20155;-59
2023/05/27 12:53:05;;;;;;;2.88;1.80;;;;;;;30.66;42.02;98042.19;5077647;28;20044;-56
2023/05/27 12:55:35;;;;;;;3.97;2.03;;;;;;;30.61;41.75;98051.41;5100075;28;20055;-59
2023/05/27 12:58:05;;;;;;;5.43;1.85;;;;;;;30.65;43.08;98048.78;5085911;28;20523;-61
2023/05/27 13:00:34;;;;;;;2.83;1.75;;;;;;;30.61;43.09;98056.88;5087869;28;20159;-63
2023/05/27 13:03:04;;;;;;;7.47;2.10;;;;;;;30.59;41.72;98045.47;5073223;28;20110;-61
2023/05/27 13:05:34;;;;;;;6.97;1.83;;;;;;;30.60;42.65;98040.78;5070338;28;20052;-65
2023/05/27 13:08:05;;;;;;;6.80;2.30;;;;;;;30.62;41.57;98044.00;5087210;28;20087;-62
2023/05/27 13:10:34;;;;;;;6.72;2.13;;;;;;;30.60;41.45;98047.06;5093888;28;20035;-64
2023/05/27 13:13:04;;;;;;;11.65;2.45;;;;;;;30.61;41.21;98056.06;5050803;28;20067;-61
2023/05/27 13:15:33;;;;;;;4.80;1.92;;;;;;;30.57;43.92;98050.47;5097995;28;20064;-64
2023/05/27 13:18:04;;;;;;;7.00;1.90;;;;;;;30.53;43.92;98067.91;5074404;28;20268;-65
2023/05/27 13:20:35;;;;;;;5.55;1.98;;;;;;;30.47;43.27;98064.56;5078905;28;20497;-62
2023/05/27 13:23:04;;;;;;;3.50;2.15;;;;;;;30.46;42.73;98075.84;5067131;28;20044;-62
2023/05/27 13:25:37;;;;;;;6.07;1.90;;;;;;;30.45;43.27;98080.50;5098141;28;20048;-64
2023/05/27 13:28:06;;;;;;;5.43;2.17;;;;;;;30.43;44.17;98068.28;5083290;28;20036;-64
2023/05/27 13:30:36;;;;;;;6.43;2.22;;;;;;;30.36;43.98;98079.75;5094877;28;20036;-62
2023/05/27 13:33:05;;;;;;;4.55;2.03;;;;;;;30.31;44.00;98083.53;5093316;28;20454;-64
2023/05/27 13:35:35;;;;;;;7.13;2.65;;;;;;;30.25;43.88;98078.59;5097806;28;20433;-64
2023/05/27 13:38:05;;;;;;;4.53;2.08;;;;;;;30.16;45.87;98084.13;5068912;28;20058;-62
2023/05/27 13:40:36;;;;;;;5.15;2.30;;;;;;;30.08;44.35;98079.56;5100210;28;20101;-65
2023/05/27 13:43:05;;;;;;;7.38;3.22;;;;;;;30.04;44.70;98086.81;5090125;28;20055;-64
2023/05/27 13:45:35;;;;;;;5.22;2.50;;;;;;;30.04;44.53;98080.56;5091772;28;20040;-62
2023/05/27 13:48:04;;;;;;;5.20;2.25;;;;;;;29.96;45.74;98082.25;5100932;28;20395;-62
2023/05/27 13:50:35;;;;;;;10.02;2.85;;;;;;;29.89;44.07;98087.44;5096449;28;20044;-64
2023/05/27 13:53:04;;;;;;;6.10;2.45;;;;;;;29.83;47.36;98089.50;5081802;28;20158;-61
2023/05/27 13:55:34;;;;;;;13.15;3.50;;;;;;;29.74;46.39;98094.25;5074739;28;20044;-62
2023/05/27 13:58:03;;;;;;;11.13;3.75;;;;;;;29.78;48.27;98094.41;5070097;28;20057;-62
2023/05/27 14:00:33;;;;;;;13.85;3.90;;;;;;;29.71;47.84;98091.38;5105643;28;20040;-63
2023/05/27 14:03:02;;;;;;;13.15;4.20;;;;;;;29.63;47.80;98084.84;5093014;28;20521;-64
2023/05/27 14:05:34;;;;;;;12.82;3.35;;;;;;;29.60;48.03;98084.72;5109561;28;20048;-63
2023/05/27 14:08:04;;;;;;;12.40;3.33;;;;;;;29.55;47.28;98096.63;5090133;28;20055;-63
2023/05/27 14:10:34;;;;;;;6.45;2.75;;;;;;;29.47;45.79;98092.03;5072847;28;20052;-64
2023/05/27 14:13:04;;;;;;;11.63;3.20;;;;;;;29.48;45.17;98092.81;5100230;28;20039;-62
2023/05/27 14:15:34;;;;;;;10.00;3.08;;;;;;;29.42;46.03;98090.31;5108152;28;20043;-60
2023/05/27 14:18:05;;;;;;;7.97;3.17;;;;;;;29.41;45.44;98085.97;5103298;28;20086;-62
2023/05/27 14:20:35;;;;;;;8.52;3.10;;;;;;;29.37;46.77;98090.50;5105696;28;20039;-59
2023/05/27 14:23:09;;;;;;;5.32;2.70;;;;;;;29.38;47.99;98097.56;5103498;28;20043;-61
2023/05/27 14:25:39;;;;;;;5.25;3.67;;;;;;;29.34;48.79;98099.31;5071945;28;20044;-60
2023/05/27 14:28:11;;;;;;;6.80;2.67;;;;;;;29.34;46.25;98098.53;5081356;28;20044;-60
2023/05/27 14:30:41;;;;;;;7.50;2.95;;;;;;;29.30;47.48;98101.09;5110205;28;20048;-60
2023/05/27 14:33:10;;;;;;;4.65;2.63;;;;;;;29.22;47.30;98106.56;5105361;28;20035;-59
2023/05/27 14:35:40;;;;;;;5.82;3.00;;;;;;;29.27;48.96;98099.00;5079798;28;20123;-60
2023/05/27 14:38:10;;;;;;;8.27;2.72;;;;;;;29.27;48.86;98114.56;5094413;28;20065;-60
2023/05/27 14:40:40;;;;;;;9.70;3.33;;;;;;;29.16;46.53;98111.44;5104919;28;20051;-61
2023/05/27 14:43:11;;;;;;;5.53;3.08;;;;;;;29.10;47.65;98110.00;5103119;28;20055;-60
2023/05/27 14:45:42;;;;;;;6.10;3.90;;;;;;;29.09;48.99;98113.84;5097719;28;20370;-61
2023/05/27 14:48:11;;;;;;;11.48;3.97;;;;;;;29.12;47.23;98104.22;5093889;28;20100;-59
2023/05/27 14:50:41;;;;;;;11.55;4.38;;;;;;;29.08;47.26;98111.47;5103473;28;20052;-62
2023/05/27 14:53:10;;;;;;;10.82;4.35;;;;;;;28.99;47.03;98103.31;5105179;28;20043;-65
2023/05/27 14:55:40;;;;;;;12.38;5.03;;;;;;;29.01;47.22;98106.50;5081611;28;20055;-61
2023/05/27 14:58:09;;;;;;;10.48;4.80;;;;;;;29.00;48.87;98107.63;5096829;28;20078;-62
2023/05/27 15:00:38;;;;;;;16.20;4.80;;;;;;;28.96;48.19;98110.22;5102711;28;20047;-59
2023/05/27 15:03:08;;;;;;;10.18;4.95;;;;;;;28.90;48.12;98118.91;5085734;28;20048;-61
2023/05/27 15:05:37;;;;;;;13.48;5.78;;;;;;;28.84;48.14;98121.03;5069834;28;20044;-62
2023/05/27 15:08:11;;;;;;;11.23;5.70;;;;;;;28.82;48.67;98109.63;5086762;28;20051;-62
2023/05/27 15:10:40;;;;;;;10.57;5.60;;;;;;;28.79;49.37;98120.38;5068056;28;20048;-63
2023/05/27 15:13:13;;;;;;;10.23;5.05;;;;;;;28.76;48.76;98123.78;5087568;28;20726;-65
2023/05/27 15:15:44;;;;;;;9.82;5.15;;;;;;;28.77;49.06;98130.81;5087793;28;20040;-64
2023/05/27 15:18:13;;;;;;;17.58;5.60;;;;;;;28.74;49.19;98135.00;5077665;28;20044;-62
2023/05/27 15:20:43;;;;;;;8.25;4.60;;;;;;;28.70;51.17;98134.03;5086700;28;20040;-64
2023/05/27 15:23:12;;;;;;;9.15;4.95;;;;;;;28.63;49.78;98133.72;5087370;28;20130;-63
2023/05/27 15:25:42;;;;;;;9.43;5.35;;;;;;;28.59;51.17;98128.09;5088548;28;20036;-64
2023/05/27 15:28:11;;;;;;;7.85;4.30;;;;;;;28.54;50.25;98135.66;5087679;28;20044;-63
2023/05/27 15:30:41;;;;;;;14.07;4.95;;;;;;;28.54;52.51;98127.47;5087923;28;20059;-64
2023/05/27 15:33:11;;;;;;;11.57;3.97;;;;;;;28.47;50.20;98127.16;5087465;28;20162;-63
2023/05/27 15:35:40;;;;;;;8.65;3.88;;;;;;;28.57;51.38;98130.34;5088512;28;20050;-64
2023/05/27 15:38:13;;;;;;;6.82;3.85;;;;;;;28.57;52.51;98126.81;5075394;28;20077;-62
2023/05/27 15:40:44;;;;;;;9.57;3.60;;;;;;;28.60;52.12;98131.63;5085255;28;20047;-64
2023/05/27 15:43:15;;;;;;;7.68;3.55;;;;;;;28.49;51.85;98138.53;5087435;28;20039;-62
2023/05/27 15:45:45;;;;;;;6.88;3.50;;;;;;;28.49;52.22;98144.78;5086230;28;20105;-63
2023/05/27 15:48:31;;;;;;;12.43;4.28;;;;;;;28.40;53.55;98149.44;5068947;28;20750;-63
2023/05/27 15:51:01;;;;;;;8.32;4.93;;;;;;;28.28;53.63;98157.44;5086648;28;20044;-64
2023/05/27 15:53:31;;;;;;;13.27;5.65;;;;;;;28.27;53.11;98164.03;5070343;28;20098;-66
2023/05/27 15:56:02;;;;;;;9.50;5.65;;;;;;;28.24;53.51;98175.56;5086148;28;20406;-67
2023/05/27 15:58:31;;;;;;;8.68;5.00;;;;;;;28.21;53.81;98189.03;5088073;28;20062;-64
2023/05/27 16:01:01;;;;;;;12.57;5.05;;;;;;;28.08;54.63;98185.31;5087661;28;20040;-63
2023/05/27 16:03:31;;;;;;;7.28;4.35;;;;;;;28.09;54.63;98184.19;5106237;28;20116;-64
2023/05/27 16:06:05;;;;;;;10.57;4.07;;;;;;;28.09;54.04;98185.00;5105724;28;20127;-64
2023/05/27 16:08:34;;;;;;;8.68;3.08;;;;;;;28.08;54.02;98185.31;5090934;28;20599;-62
2023/05/27 16:11:04;;;;;;;12.63;3.28;;;;;;;28.06;55.20;98190.25;5106688;28;20036;-63
2023/05/27 16:13:36;;;;;;;9.80;3.17;;;;;;;27.97;55.47;98192.97;5087424;28;20771;-65
2023/05/27 16:16:06;;;;;;;5.13;3.15;;;;;;;27.97;53.29;98187.53;5100975;28;20035;-66
2023/05/27 16:18:37;;;;;;;7.40;3.05;;;;;;;27.99;54.74;98187.22;5107858;28;20058;-65
2023/05/27 16:21:07;;;;;;;7.95;3.20;;;;;;;27.95;54.74;98183.53;5098475;28;20344;-63
2023/05/27 16:23:37;;;;;;;7.90;3.40;;;;;;;27.99;54.13;98170.88;5108963;28;20142;-66
2023/05/27 16:26:06;;;;;;;9.43;3.65;;;;;;;27.94;54.58;98176.47;5094400;28;20415;-63
2023/05/27 16:28:36;;;;;;;11.63;4.07;;;;;;;28.03;53.44;98196.34;5088370;28;20071;-67
2023/05/27 16:31:05;;;;;;;11.32;4.03;;;;;;;28.03;54.86;98196.34;5087666;28;20044;-65
2023/05/27 16:33:35;;;;;;;11.00;4.88;;;;;;;28.01;54.78;98206.78;5099887;28;20054;-63
2023/05/27 16:36:06;;;;;;;8.57;4.60;;;;;;;27.99;54.54;98195.38;5102242;28;20062;-65
2023/05/27 16:38:35;;;;;;;5.95;4.00;;;;;;;27.97;53.16;98200.34;5104291;28;20043;-63
2023/05/27 16:41:06;;;;;;;5.35;3.60;;;;;;;27.92;54.20;98211.38;5069636;28;20875;-63
2023/05/27 16:43:35;;;;;;;15.30;3.95;;;;;;;27.92;54.93;98208.66;5075294;28;20052;-63
2023/05/27 16:46:05;;;;;;;7.88;4.80;;;;;;;27.84;53.86;98199.34;5091160;28;20043;-66
2023/05/27 16:48:34;;;;;;;6.03;3.50;;;;;;;27.85;54.70;98203.69;5097236;28;20067;-65
2023/05/27 16:51:05;;;;;;;8.10;3.50;;;;;;;27.88;52.57;98210.44;5100317;28;20615;-65
2023/05/27 16:53:35;;;;;;;11.68;4.03;;;;;;;27.93;52.75;98204.81;5103521;28;20117;-65
2023/05/27 16:56:04;;;;;;;13.02;4.13;;;;;;;27.90;51.87;98198.09;5094186;28;20129;-64
2023/05/27 16:58:34;;;;;;;8.82;3.95;;;;;;;27.86;54.07;98197.13;5078740;28;20204;-64
2023/05/27 17:01:03;;;;;;;15.27;4.95;;;;;;;27.77;52.88;98196.31;5093939;28;20086;-65
2023/05/27 17:03:33;;;;;;;11.77;4.47;;;;;;;27.79;54.84;98188.63;5085327;28;20048;-65
2023/05/27 17:06:02;;;;;;;10.13;4.25;;;;;;;27.83;53.22;98205.94;5086889;28;20054;-65
2023/05/27 17:08:32;;;;;;;10.00;4.40;;;;;;;27.81;54.39;98205.44;5093016;28;20051;-63
2023/05/27 17:11:01;;;;;;;12.05;4.35;;;;;;;27.75;54.33;98201.25;5101382;28;20051;-63
2023/05/27 17:13:31;;;;;;;9.80;4.57;;;;;;;27.75;53.98;98206.69;5106247;28;20055;-63
2023/05/27 17:16:01;;;;;;;14.38;4.38;;;;;;;27.67;54.37;98212.91;5075626;28;20043;-62
2023/05/27 17:18:31;;;;;;;8.93;4.68;;;;;;;27.74;53.37;98215.19;5091941;28;20113;-62
2023/05/27 17:21:00;;;;;;;9.15;4.45;;;;;;;27.68;54.30;98211.81;5093077;28;20063;-61
2023/05/27 17:23:30;;;;;;;8.38;4.90;;;;;;;27.69;54.33;98221.56;5109834;28;20151;-63
2023/05/27 17:25:59;;;;;;;9.35;3.97;;;;;;;27.57;54.66;98226.81;5094858;28;20112;-61
2023/05/27 17:28:29;;;;;;;8.27;4.70;;;;;;;27.54;54.43;98228.25;5089876;28;20097;-61
2023/05/27 17:30:59;;;;;;;6.43;4.22;;;;;;;27.53;54.71;98229.34;5097675;28;20052;-64
2023/05/27 17:33:28;;;;;;;16.45;4.80;;;;;;;27.49;54.50;98224.84;5109126;28;20048;-62
2023/05/27 17:35:58;;;;;;;9.95;4.53;;;;;;;27.41;54.74;98214.72;5110192;28;20144;-61
2023/05/27 17:38:28;;;;;;;8.80;4.22;;;;;;;27.39;54.69;98214.25;5099618;28;20040;-62
2023/05/27 17:41:01;;;;;;;9.02;4.40;;;;;;;27.33;55.04;98210.84;5091028;28;20042;-63
2023/05/27 17:43:31;;;;;;;9.55;4.65;;;;;;;27.26;55.41;98215.94;5088992;28;20044;-64
2023/05/27 17:46:02;;;;;;;13.82;4.95;;;;;;;27.18;55.45;98208.53;5089706;28;20117;-65
2023/05/27 17:48:31;;;;;;;10.07;4.47;;;;;;;27.15;56.49;98199.09;5080663;28;20125;-68
2023/05/27 17:51:01;;;;;;;10.20;4.90;;;;;;;27.11;57.08;98191.88;5107770;28;20142;-64
2023/05/27 17:53:30;;;;;;;8.27;4.40;;;;;;;27.07;57.91;98190.88;5105686;28;20051;-62
2023/05/27 17:56:00;;;;;;;18.40;4.53;;;;;;;27.03;57.32;98182.56;5079998;28;20051;-64
2023/05/27 17:58:29;;;;;;;10.75;4.78;;;;;;;26.96;57.77;98189.53;5093366;28;20116;-63
2023/05/27 18:01:02;;;;;;;9.60;4.97;;;;;;;27.06;56.45;98205.59;5093570;28;20047;-63
2023/05/27 18:03:32;;;;;;;8.77;4.78;;;;;;;27.04;57.02;98194.25;5102662;27;20138;-62
2023/05/27 18:06:07;;;;;;;11.45;4.75;;;;;;;26.99;56.70;98188.94;5107517;27;20047;-64
2023/05/27 18:08:37;;;;;;;7.32;4.38;;;;;;;27.04;56.56;98200.44;5100901;28;20609;-62
2023/05/27 18:11:06;;;;;;;11.30;4.88;;;;;;;27.11;57.16;98192.66;5105060;28;20043;-61
2023/05/27 18:13:38;;;;;;;11.68;5.30;;;;;;;27.08;56.18;98197.94;5109750;28;20348;-61
2023/05/27 18:16:07;;;;;;;10.38;4.93;;;;;;;27.05;56.72;98193.91;5107944;28;20047;-61
2023/05/27 18:18:37;;;;;;;14.45;5.53;;;;;;;27.06;57.02;98194.72;5092820;28;20130;-64
2023/05/27 18:21:07;;;;;;;8.75;4.78;;;;;;;27.01;57.72;98187.50;5108335;28;20044;-63
2023/05/27 18:23:36;;;;;;;18.85;5.43;;;;;;;26.92;57.01;98188.56;5089940;28;20550;-65
2023/05/27 18:26:06;;;;;;;16.67;5.13;;;;;;;26.94;57.66;98189.06;5092094;28;20078;-63
2023/05/27 18:28:35;;;;;;;8.05;4.72;;;;;;;26.93;57.83;98182.00;5109122;28;20043;-65
2023/05/27 18:31:05;;;;;;;13.52;5.32;;;;;;;26.95;57.71;98174.38;5107826;28;20039;-64
2023/05/27 18:33:35;;;;;;;12.85;5.25;;;;;;;26.87;59.85;98181.34;5108398;28;20112;-64
2023/05/27 18:36:05;;;;;;;12.75;5.30;;;;;;;26.73;59.01;98170.50;5107977;28;20093;-64
2023/05/27 18:38:35;;;;;;;9.57;4.90;;;;;;;26.75;59.64;98181.06;5109193;28;20124;-63
2023/05/27 18:41:04;;;;;;;8.55;4.82;;;;;;;26.69;59.07;98185.81;5107788;28;20135;-61
2023/05/27 18:43:34;;;;;;;8.65;5.05;;;;;;;26.69;59.05;98177.69;5097697;28;20039;-64
2023/05/27 18:46:04;;;;;;;10.32;5.95;;;;;;;26.75;58.70;98187.31;5108090;28;20380;-64
2023/05/27 18:48:34;;;;;;;12.77;5.78;;;;;;;26.76;58.73;98202.50;5090316;28;20767;-63
2023/05/27 18:51:05;;;;;;;9.48;5.07;;;;;;;26.78;58.53;98205.72;5088022;28;20047;-63
2023/05/27 18:53:37;;;;;;;15.55;5.95;;;;;;;26.75;58.64;98209.06;5095473;28;20082;-61
2023/05/27 18:56:06;;;;;;;9.38;5.72;;;;;;;26.73;58.65;98203.13;5097491;28;20742;-63
2023/05/27 18:58:39;;;;;;;23.75;5.78;;;;;;;26.68;58.25;98197.03;5103104;28;20067;-63
2023/05/27 19:01:09;;;;;;;12.02;5.78;;;;;;;26.67;57.98;98209.00;5106198;28;20386;-64
2023/05/27 19:03:39;;;;;;;11.10;5.90;;;;;;;26.63;58.59;98202.56;5061500;28;20036;-61
2023/05/27 19:06:09;;;;;;;10.43;5.38;;;;;;;26.63;59.49;98195.22;5082518;28;20152;-62
2023/05/27 19:08:39;;;;;;;8.40;5.88;;;;;;;26.59;59.74;98188.81;5084515;28;20131;-61
2023/05/27 19:11:08;;;;;;;10.65;5.70;;;;;;;26.56;58.74;98191.31;5073009;28;20059;-63
2023/05/27 19:13:38;;;;;;;10.60;6.00;;;;;;;26.53;59.75;98187.31;5076063;28;20052;-62
2023/05/27 19:16:07;;;;;;;20.35;7.93;;;;;;;26.47;60.16;98187.75;5081820;27;20051;-64
2023/05/27 19:18:37;;;;;;;11.90;5.80;;;;;;;26.43;60.69;98182.13;5078138;28;20047;-61
2023/05/27 19:21:07;;;;;;;13.18;5.80;;;;;;;26.40;60.96;98196.34;5073798;28;20044;-64
2023/05/27 19:23:36;;;;;;;18.13;5.95;;;;;;;26.38;60.51;98195.81;5078359;28;20071;-63
2023/05/27 19:26:06;;;;;;;8.45;5.20;;;;;;;26.35;61.12;98204.59;5083372;28;20048;-63
2023/05/27 19:28:35;;;;;;;17.38;6.28;;;;;;;26.38;60.24;98208.63;5082680;28;20072;-62
2023/05/27 19:31:05;;;;;;;12.30;5.82;;;;;;;26.39;61.88;98216.44;5084400;28;20053;-63
2023/05/27 19:33:35;;;;;;;16.52;5.72;;;;;;;26.36;61.41;98217.06;5079340;28;20048;-62
2023/05/27 19:36:05;;;;;;;11.98;6.03;;;;;;;26.43;60.90;98208.47;5078208;28;20052;-64
2023/05/27 19:38:35;;;;;;;9.55;5.78;;;;;;;26.49;60.68;98213.50;5079453;28;20044;-60
2023/05/27 19:41:05;;;;;;;19.05;6.90;;;;;;;26.50;61.13;98209.69;5083034;28;20291;-62
2023/05/27 19:43:34;;;;;;;10.98;6.03;;;;;;;26.45;60.48;98211.69;5057941;28;20439;-63
2023/05/27 19:46:04;;;;;;;16.83;6.25;;;;;;;26.45;60.02;98212.50;5060446;28;20064;-64
2023/05/27 19:48:34;;;;;;;14.82;7.25;;;;;;;26.48;59.31;98201.03;5103427;28;20131;-64
2023/05/27 19:51:03;;;;;;;15.65;6.47;;;;;;;26.45;59.77;98198.13;5103711;28;20084;-64
2023/05/27 19:53:33;;;;;;;10.70;6.00;;;;;;;26.44;61.01;98207.38;5100185;28;20067;-65
2023/05/27 19:56:04;;;;;;;11.25;6.05;;;;;;;26.35;60.15;98205.41;5049963;28;20048;-61
2023/05/27 19:58:35;;;;;;;10.35;5.90;;;;;;;26.33;60.52;98209.53;5102823;28;20067;-63
2023/05/27 20:01:06;;;;;;;13.13;6.23;;;;;;;26.32;60.39;98213.34;5104077;28;20092;-62
2023/05/27 20:03:35;;;;;;;14.95;5.82;;;;;;;26.34;61.00;98208.41;5107680;28;20284;-62
2023/05/27 20:06:04;;;;;;;13.20;6.30;;;;;;;26.35;60.16;98207.31;5107924;28;20071;-63
2023/05/27 20:08:34;;;;;;;16.25;6.50;;;;;;;26.29;61.25;98209.31;5091766;28;20126;-62
2023/05/27 20:11:04;;;;;;;15.45;6.38;;;;;;;26.21;62.21;98207.34;5074038;28;20044;-65
2023/05/27 20:13:33;;;;;;;19.20;6.30;;;;;;;26.16;62.22;98206.63;5087571;28;20048;-65
2023/05/27 20:16:04;;;;;;;11.05;6.43;;;;;;;26.20;61.37;98205.72;5106740;28;20043;-63
2023/05/27 20:18:34;;;;;;;11.50;5.70;;;;;;;26.19;61.54;98193.25;5088062;28;20047;-65
2023/05/27 20:21:03;;;;;;;13.93;6.65;;;;;;;26.12;62.18;98200.19;5080214;28;20066;-64
2023/05/27 20:23:37;;;;;;;14.13;5.90;;;;;;;26.07;62.95;98192.97;5075465;28;20735;-64
2023/05/27 20:26:07;;;;;;;9.93;6.03;;;;;;;26.05;62.21;98181.63;5075581;28;20043;-64
2023/05/27 20:28:38;;;;;;;11.05;6.30;;;;;;;26.04;62.26;98177.31;5078687;28;20359;-63
2023/05/27 20:31:07;;;;;;;14.85;5.75;;;;;;;26.06;62.87;98182.44;5080098;28;20485;-64
2023/05/27 20:33:36;;;;;;;18.33;6.10;;;;;;;26.04;62.63;98188.16;5081592;28;20047;-62
2023/05/27 20:36:06;;;;;;;12.93;6.40;;;;;;;26.13;62.43;98182.81;5081642;28;20044;-64
2023/05/27 20:38:35;;;;;;;10.02;6.63;;;;;;;26.12;62.01;98175.75;5084868;28;20044;-61
2023/05/27 20:41:07;;;;;;;19.27;6.90;;;;;;;26.13;62.19;98180.09;5077901;28;20064;-62
2023/05/27 20:43:38;;;;;;;10.90;6.35;;;;;;;26.06;63.45;98168.88;5076674;28;20066;-62
2023/05/27 20:46:07;;;;;;;15.13;6.32;;;;;;;26.03;63.39;98164.03;5075435;28;20048;-63
2023/05/27 20:48:38;;;;;;;13.02;6.93;;;;;;;26.04;63.95;98165.63;5084754;28;20068;-61